Time;durP1;ratioP1;P1;durP2;ratioP2;P2;SDS_P1;SDS_P2;PMS_P1;PMS_P2;Temp;Humidity;BMP_temperature;BMP_pressure;BME280_temperature;BME280_humidity;BME280_pressure;Samples;Min_cycle;Max_cycle;Signal;HPM_P1;HPM_P2
2022/06/25 00:01:24;;;;;;;4.60;3.65;;;;;;;19.58;53.74;99259.45;1739145;82;20978;-43
2022/06/25 00:03:51;;;;;;;7.35;3.92;;;;;;;19.59;53.95;99260.22;1739382;82;20974;-44
2022/06/25 00:06:18;;;;;;;5.08;3.75;;;;;;;19.59;53.92;99264.34;1739248;82;21093;-43
2022/06/25 00:08:46;;;;;;;4.25;3.62;;;;;;;19.59;54.22;99261.00;1739290;82;21083;-43
2022/06/25 00:14:07;;;;;;;5.50;3.90;;;;;;;19.56;54.16;99264.58;1752802;81;21506;-43
2022/06/25 00:16:34;;;;;;;4.92;3.42;;;;;;;19.53;54.04;99266.21;1754858;81;20986;-43
2022/06/25 00:19:02;;;;;;;5.25;3.77;;;;;;;19.51;54.04;99257.59;1755115;81;21300;-43
2022/06/25 00:21:30;;;;;;;6.60;4.05;;;;;;;19.51;53.99;99263.09;1755203;81;21128;-43
2022/06/25 00:23:57;;;;;;;7.03;3.60;;;;;;;19.51;54.53;99264.47;1754796;81;21005;-44
2022/06/25 00:26:25;;;;;;;6.58;3.90;;;;;;;19.51;54.36;99265.06;1754440;81;20942;-43
2022/06/25 00:28:52;;;;;;;6.75;3.60;;;;;;;19.50;54.62;99261.56;1752576;81;20982;-43
2022/06/25 00:31:19;;;;;;;5.50;3.60;;;;;;;19.49;54.39;99264.73;1750217;81;21011;-43
2022/06/25 00:33:46;;;;;;;6.97;3.90;;;;;;;19.46;54.39;99263.58;1750093;81;21260;-43
2022/06/25 00:36:14;;;;;;;7.67;3.80;;;;;;;19.46;54.38;99266.33;1750115;81;21010;-43
2022/06/25 00:38:41;;;;;;;6.22;3.58;;;;;;;19.44;54.45;99265.22;1750076;81;21039;-44
2022/06/25 00:41:09;;;;;;;5.58;4.00;;;;;;;19.43;54.33;99269.91;1750041;81;21030;-43
2022/06/25 00:43:40;;;;;;;6.20;3.67;;;;;;;19.43;54.31;99261.66;1749792;82;21042;-43
2022/06/25 00:46:07;;;;;;;6.72;3.70;;;;;;;19.43;54.28;99269.91;1749914;82;21145;-43
2022/06/25 00:48:34;;;;;;;6.10;3.72;;;;;;;19.41;54.36;99267.41;1749829;81;20939;-43
2022/06/25 00:51:08;;;;;;;4.83;4.00;;;;;;;19.38;54.31;99271.77;1749866;81;21027;-44
2022/06/25 00:53:36;;;;;;;7.22;4.03;;;;;;;19.37;54.32;99270.80;1749796;82;21529;-43
2022/06/25 00:56:05;;;;;;;6.58;3.70;;;;;;;19.36;54.43;99274.17;1749993;81;21063;-43
2022/06/25 00:58:36;;;;;;;7.28;4.03;;;;;;;19.35;54.51;99271.84;1750079;81;21218;-44
2022/06/25 01:01:04;;;;;;;6.80;3.67;;;;;;;19.35;54.63;99269.87;1750013;82;21003;-43
2022/06/25 01:03:31;;;;;;;5.47;4.00;;;;;;;19.33;54.94;99276.37;1749728;82;21003;-43
2022/06/25 01:05:59;;;;;;;4.42;3.50;;;;;;;19.33;55.04;99272.25;1750189;82;21469;-43
2022/06/25 01:08:26;;;;;;;7.50;4.05;;;;;;;19.31;55.16;99274.66;1745264;81;21521;-44
2022/06/25 01:10:53;;;;;;;7.00;3.77;;;;;;;19.31;55.36;99278.78;1749882;81;21210;-43
2022/06/25 01:13:21;;;;;;;8.15;4.30;;;;;;;19.29;55.47;99280.38;1748506;82;21027;-43
2022/06/25 01:15:49;;;;;;;6.97;3.92;;;;;;;19.28;55.53;99282.34;1749926;82;21018;-43
2022/06/25 01:18:17;;;;;;;4.45;3.77;;;;;;;19.28;55.64;99285.09;1720594;82;21074;-43
2022/06/25 01:20:44;;;;;;;4.42;3.90;;;;;;;19.26;56.11;99279.27;1750056;82;21042;-43
2022/06/25 01:23:12;;;;;;;7.00;4.30;;;;;;;19.22;56.36;99288.14;1744429;82;21228;-43
2022/06/25 01:25:40;;;;;;;7.03;3.60;;;;;;;19.18;56.68;99288.80;1743429;82;21583;-43
2022/06/25 01:28:08;;;;;;;4.00;3.70;;;;;;;19.16;56.84;99287.09;1743264;82;21021;-44
2022/06/25 01:30:35;;;;;;;5.62;3.80;;;;;;;19.13;56.86;99289.28;1743211;82;20985;-43
2022/06/25 01:33:08;;;;;;;5.03;4.08;;;;;;;19.09;57.18;99282.48;1743294;82;21025;-44
2022/06/25 01:35:36;;;;;;;6.67;3.75;;;;;;;19.08;57.28;99286.41;1743388;82;21848;-44
2022/06/25 01:38:04;;;;;;;5.00;4.00;;;;;;;19.04;57.46;99284.92;1743056;82;20978;-43
2022/06/25 01:40:32;;;;;;;6.65;4.37;;;;;;;19.02;57.60;99286.73;1738447;82;20988;-43
2022/06/25 01:42:59;;;;;;;7.42;3.80;;;;;;;19.00;57.96;99293.23;1743226;82;20989;-43
2022/06/25 01:45:31;;;;;;;6.17;4.03;;;;;;;18.96;58.07;99293.89;1743210;82;21072;-43
2022/06/25 01:47:59;;;;;;;8.35;4.22;;;;;;;18.94;58.33;99299.02;1743189;82;23177;-43
2022/06/25 01:50:27;;;;;;;6.78;3.95;;;;;;;18.92;58.48;99302.02;1743225;82;21005;-43
2022/06/25 01:52:55;;;;;;;5.60;3.62;;;;;;;18.90;58.29;99305.76;1743090;82;21016;-43
2022/06/25 01:55:22;;;;;;;6.05;4.00;;;;;;;18.90;58.21;99308.50;1743115;82;21375;-43
2022/06/25 01:57:51;;;;;;;6.08;4.22;;;;;;;18.88;58.39;99299.92;1743183;82;21065;-43
2022/06/25 02:00:23;;;;;;;8.58;4.08;;;;;;;18.86;58.51;99305.82;1743150;82;23165;-43
2022/06/25 02:02:52;;;;;;;6.45;3.92;;;;;;;18.84;58.56;99301.92;1743317;82;20922;-43
2022/06/25 02:08:08;;;;;;;7.12;4.35;;;;;;;18.83;59.07;99301.14;1743452;82;21008;-43
2022/06/25 02:10:37;;;;;;;9.13;4.28;;;;;;;18.84;59.24;99301.92;1743696;82;21005;-43
2022/06/25 02:13:04;;;;;;;7.42;4.10;;;;;;;18.84;59.19;99304.08;1743312;82;21083;-44
2022/06/25 02:15:34;;;;;;;4.45;3.87;;;;;;;18.83;59.32;99301.14;1747849;81;20918;-43
2022/06/25 02:18:03;;;;;;;4.30;3.90;;;;;;;18.82;59.45;99286.47;1749081;81;21484;-43
2022/06/25 02:20:30;;;;;;;5.12;3.70;;;;;;;18.81;59.49;99298.64;1748998;82;20954;-43
2022/06/25 02:22:58;;;;;;;5.37;3.98;;;;;;;18.81;59.28;99295.30;1749191;81;21017;-43
2022/06/25 02:25:25;;;;;;;6.25;4.25;;;;;;;18.81;59.10;99290.41;1749286;82;21213;-43
2022/06/25 02:27:52;;;;;;;6.08;3.47;;;;;;;18.81;59.37;99304.92;1748958;82;21037;-43
2022/06/25 02:30:20;;;;;;;6.15;3.85;;;;;;;18.82;59.68;99304.33;1749011;82;20984;-43
2022/06/25 02:32:47;;;;;;;6.15;3.62;;;;;;;18.81;59.78;99304.14;1749239;81;21088;-43
2022/06/25 02:35:14;;;;;;;7.45;4.35;;;;;;;18.80;59.75;99305.33;1749314;81;21037;-43
2022/06/25 02:37:42;;;;;;;4.55;3.90;;;;;;;18.81;59.80;99300.80;1748966;82;21796;-43
2022/06/25 02:40:12;;;;;;;6.50;4.15;;;;;;;18.82;59.95;99300.98;1748893;81;21012;-43
2022/06/25 02:42:40;;;;;;;4.70;3.35;;;;;;;18.85;59.80;99294.65;1749502;81;20984;-43
2022/06/25 02:45:08;;;;;;;4.58;3.95;;;;;;;18.87;59.65;99293.65;1748992;81;21488;-43
2022/06/25 02:47:36;;;;;;;6.47;4.30;;;;;;;18.89;59.76;99295.95;1749321;82;21045;-43
2022/06/25 02:50:11;;;;;;;7.45;3.85;;;;;;;18.89;59.80;99293.21;1749305;82;21872;-43
2022/06/25 02:52:40;;;;;;;6.17;3.60;;;;;;;18.95;59.49;99297.05;1748958;82;21045;-43
2022/06/25 02:55:09;;;;;;;5.72;3.72;;;;;;;19.03;59.35;99292.98;1749362;81;20981;-43
2022/06/25 03:00:28;;;;;;;4.25;3.40;;;;;;;19.18;59.28;99292.92;1749101;81;21080;-43
2022/06/25 03:02:55;;;;;;;8.40;3.90;;;;;;;19.25;59.08;99297.53;1748965;82;21242;-44
2022/06/25 03:05:23;;;;;;;7.37;3.77;;;;;;;19.30;58.80;99289.59;1748959;81;20945;-43
2022/06/25 03:07:50;;;;;;;6.22;3.90;;;;;;;19.38;58.72;99302.00;1748849;82;21419;-44
2022/06/25 03:10:19;;;;;;;7.05;3.95;;;;;;;19.44;58.47;99304.48;1749059;81;21001;-44
2022/06/25 03:12:46;;;;;;;5.85;3.92;;;;;;;19.49;58.45;99301.25;1748709;82;21464;-44
2022/06/25 03:15:15;;;;;;;5.78;3.85;;;;;;;19.55;58.34;99299.39;1740777;82;21944;-44
2022/06/25 03:17:43;;;;;;;6.35;3.98;;;;;;;19.59;58.25;99306.38;1734961;82;21028;-44
2022/06/25 03:20:29;;;;;;;5.85;3.92;;;;;;;19.63;58.34;99310.44;1735098;82;20938;-44
2022/06/25 03:22:58;;;;;;;7.83;3.87;;;;;;;19.66;58.30;99317.23;1735131;82;21046;-44
2022/06/25 03:25:26;;;;;;;5.97;4.08;;;;;;;19.70;58.08;99315.81;1735022;82;21025;-44
2022/06/25 03:27:55;;;;;;;6.43;4.13;;;;;;;19.73;58.40;99317.71;1735063;82;23121;-44
2022/06/25 03:30:22;;;;;;;6.53;3.95;;;;;;;19.77;58.24;99309.56;1734946;82;20962;-44
2022/06/25 03:32:49;;;;;;;6.85;3.90;;;;;;;19.81;57.71;99310.86;1734805;82;20943;-44
2022/06/25 03:35:21;;;;;;;5.70;4.45;;;;;;;19.85;57.75;99314.32;1733866;82;21038;-44
2022/06/25 03:38:08;;;;;;;5.30;4.10;;;;;;;19.89;57.46;99315.05;1734664;82;21026;-44
2022/06/25 03:40:36;;;;;;;7.47;4.08;;;;;;;19.94;57.32;99314.56;1734773;82;21110;-44
2022/06/25 03:43:04;;;;;;;6.92;3.90;;;;;;;19.99;57.31;99311.91;1735020;82;21515;-44
2022/06/25 03:45:34;;;;;;;9.55;4.00;;;;;;;20.05;57.37;99315.70;1735177;82;21013;-43
2022/06/25 03:48:01;;;;;;;5.92;3.90;;;;;;;20.09;57.28;99313.05;1735171;82;21018;-44
2022/06/25 03:50:33;;;;;;;5.62;3.80;;;;;;;20.15;57.17;99311.36;1735295;82;21089;-44
2022/06/25 03:53:01;;;;;;;6.05;3.95;;;;;;;20.21;56.76;99316.55;1735083;82;21315;-44
2022/06/25 03:55:28;;;;;;;6.33;3.90;;;;;;;20.27;56.55;99314.86;1734970;82;20973;-44
2022/06/25 03:57:56;;;;;;;5.92;3.67;;;;;;;20.32;56.35;99319.89;1734928;82;20993;-44
2022/06/25 04:00:25;;;;;;;6.62;3.98;;;;;;;20.38;56.54;99319.55;1714463;82;21061;-44
2022/06/25 04:02:54;;;;;;;6.67;3.70;;;;;;;20.45;56.11;99316.47;1735015;82;21089;-44
2022/06/25 04:05:30;;;;;;;4.50;3.77;;;;;;;20.51;56.50;99329.91;1735040;82;21229;-44
2022/06/25 04:08:00;;;;;;;6.53;4.08;;;;;;;20.55;56.28;99329.23;1734428;82;20957;-44
2022/06/25 04:10:27;;;;;;;5.17;3.62;;;;;;;20.61;56.00;99334.42;1734927;82;21077;-44
2022/06/25 04:12:55;;;;;;;5.03;3.70;;;;;;;20.68;55.54;99332.27;1735092;82;21042;-44
2022/06/25 04:15:22;;;;;;;5.67;3.52;;;;;;;20.75;55.59;99343.14;1734920;81;21026;-44
2022/06/25 04:17:49;;;;;;;5.35;3.25;;;;;;;20.82;55.30;99344.94;1734970;82;21139;-44
2022/06/25 04:20:17;;;;;;;4.40;3.58;;;;;;;20.89;54.51;99348.14;1735076;82;20966;-43
2022/06/25 04:22:44;;;;;;;8.13;3.65;;;;;;;20.96;54.88;99348.74;1734883;82;21020;-43
2022/06/25 04:25:12;;;;;;;5.67;3.95;;;;;;;21.05;55.00;99353.08;1735084;82;21597;-44
2022/06/25 04:30:25;;;;;;;4.97;3.58;;;;;;;21.21;54.66;99357.83;1735307;82;21305;-43
2022/06/25 04:32:54;;;;;;;4.30;3.73;;;;;;;21.28;54.54;99361.81;1735405;82;21037;-44
2022/06/25 04:35:23;;;;;;;12.20;3.70;;;;;;;21.35;53.84;99361.61;1734881;82;20958;-44
2022/06/25 04:37:51;;;;;;;3.67;3.22;;;;;;;21.41;53.54;99357.73;1735060;82;21005;-44
2022/06/25 04:40:19;;;;;;;4.80;3.72;;;;;;;21.46;53.36;99357.22;1735131;82;20929;-44
2022/06/25 04:42:47;;;;;;;5.65;3.42;;;;;;;21.49;53.03;99358.53;1734965;82;21136;-45
2022/06/25 04:45:15;;;;;;;5.55;3.75;;;;;;;21.54;53.07;99357.23;1735042;82;20981;-44
2022/06/25 04:47:44;;;;;;;6.87;3.80;;;;;;;21.61;53.10;99365.30;1729788;82;21559;-44
2022/06/25 04:50:13;;;;;;;5.83;4.05;;;;;;;21.67;52.52;99366.34;1732099;82;21598;-44
2022/06/25 04:52:41;;;;;;;6.62;3.90;;;;;;;21.72;52.55;99367.19;1714043;82;21563;-44
2022/06/25 04:55:09;;;;;;;6.55;3.45;;;;;;;21.78;52.75;99365.46;1735021;82;21119;-43
2022/06/25 04:57:38;;;;;;;7.33;4.23;;;;;;;21.84;53.32;99369.22;1735219;82;21618;-44
2022/06/25 05:00:17;;;;;;;4.90;3.77;;;;;;;21.88;52.65;99368.52;1731870;82;21014;-44
2022/06/25 05:02:44;;;;;;;7.83;4.00;;;;;;;21.94;52.13;99371.55;1734891;82;21057;-44
2022/06/25 05:05:13;;;;;;;5.22;4.08;;;;;;;22.01;52.03;99376.30;1735194;81;20990;-44
2022/06/25 05:07:41;;;;;;;6.08;4.28;;;;;;;22.08;52.68;99380.22;1734799;82;21230;-44
2022/06/25 05:10:09;;;;;;;6.35;4.20;;;;;;;22.16;52.75;99384.19;1734834;82;21497;-45
2022/06/25 05:15:23;;;;;;;6.55;4.22;;;;;;;22.28;51.28;99384.81;1739410;81;21603;-44
2022/06/25 05:17:52;;;;;;;5.72;4.10;;;;;;;22.35;51.41;99386.78;1749082;81;21530;-45
2022/06/25 05:20:21;;;;;;;5.63;3.90;;;;;;;22.42;50.46;99386.56;1749198;82;23167;-45
2022/06/25 05:22:49;;;;;;;4.95;3.70;;;;;;;22.48;50.03;99384.04;1748990;82;21090;-45
2022/06/25 05:25:17;;;;;;;4.10;3.70;;;;;;;22.52;50.27;99388.85;1748939;82;21674;-45
2022/06/25 05:27:45;;;;;;;8.73;4.35;;;;;;;21.46;49.95;99223.44;1749075;82;21033;-45
2022/06/25 05:30:12;;;;;;;4.92;3.70;;;;;;;22.66;49.66;99394.56;1749066;82;21088;-45
2022/06/25 05:32:40;;;;;;;6.12;3.58;;;;;;;22.70;49.40;99391.92;1749079;82;21196;-45
2022/06/25 05:35:08;;;;;;;6.28;4.05;;;;;;;22.75;49.39;99396.88;1749287;81;21536;-45
2022/06/25 05:37:37;;;;;;;;;;;;;;;22.80;49.35;99397.70;1751746;82;21029;-45
2022/06/25 05:40:06;;;;;;;7.30;3.92;;;;;;;22.85;49.29;99396.41;1749331;82;20481;-45
2022/06/25 05:42:34;;;;;;;5.20;4.07;;;;;;;22.82;49.62;99402.20;1749605;81;21056;-44
2022/06/25 05:45:01;;;;;;;5.05;3.83;;;;;;;22.89;49.30;99397.84;1749291;82;21133;-44
2022/06/25 05:47:28;;;;;;;4.83;3.87;;;;;;;22.98;49.83;99406.08;1749195;82;20961;-44
2022/06/25 05:49:56;;;;;;;6.42;4.25;;;;;;;23.06;49.63;99407.40;1749201;81;21535;-45
2022/06/25 05:52:23;;;;;;;5.40;4.00;;;;;;;23.11;48.52;99404.86;1749288;82;20990;-45
2022/06/25 05:54:50;;;;;;;5.22;3.65;;;;;;;23.18;48.15;99405.25;1730161;82;21028;-44
2022/06/25 05:57:19;;;;;;;5.22;3.70;;;;;;;23.23;48.09;99406.86;1719419;83;21578;-45
2022/06/25 05:59:46;;;;;;;6.47;3.87;;;;;;;23.30;48.43;99407.22;1719300;83;21021;-45
2022/06/25 06:02:14;;;;;;;6.15;4.05;;;;;;;23.36;48.24;99409.61;1719160;83;21800;-45
2022/06/25 06:04:41;;;;;;;4.97;3.72;;;;;;;23.43;48.04;99412.13;1719087;83;20946;-45
2022/06/25 06:07:09;;;;;;;4.12;3.72;;;;;;;23.50;48.24;99418.85;1719199;83;21013;-45
2022/06/25 06:09:37;;;;;;;3.87;3.50;;;;;;;23.57;47.68;99408.95;1719290;83;21556;-45
2022/06/25 06:12:05;;;;;;;6.75;3.65;;;;;;;23.65;46.93;99407.48;1714729;83;20965;-45
2022/06/25 06:14:32;;;;;;;5.15;3.75;;;;;;;23.72;46.88;99407.23;1719189;83;21012;-45
2022/06/25 06:17:00;;;;;;;5.65;3.52;;;;;;;23.79;46.01;99402.06;1719148;83;21080;-45
2022/06/25 06:19:27;;;;;;;4.05;3.35;;;;;;;23.86;45.92;99403.83;1719280;83;21124;-45
2022/06/25 06:21:54;;;;;;;4.42;2.95;;;;;;;23.93;45.31;99400.19;1692452;83;23170;-45
2022/06/25 06:24:22;;;;;;;4.15;3.42;;;;;;;23.99;44.41;99404.55;1719132;83;20941;-45
2022/06/25 06:26:49;;;;;;;6.03;3.20;;;;;;;24.03;44.29;99404.59;1719189;83;21056;-45
2022/06/25 06:29:17;;;;;;;5.28;3.52;;;;;;;24.09;44.54;99396.48;1719054;83;21592;-45
2022/06/25 06:31:44;;;;;;;4.40;3.08;;;;;;;24.17;44.41;99393.64;1719416;83;21541;-45
2022/06/25 06:34:13;;;;;;;6.47;3.05;;;;;;;24.23;44.08;99405.70;1719416;83;21116;-45
2022/06/25 06:36:40;;;;;;;3.98;2.77;;;;;;;24.31;42.60;99405.59;1719332;83;21012;-45
2022/06/25 06:39:07;;;;;;;3.67;2.90;;;;;;;24.35;41.95;99404.84;1719556;83;21539;-45
2022/06/25 06:41:35;;;;;;;3.55;2.98;;;;;;;24.39;42.76;99398.58;1719338;83;20993;-45
2022/06/25 06:44:02;;;;;;;4.42;3.37;;;;;;;24.47;42.28;99398.47;1719255;83;21076;-45
2022/06/25 06:46:29;;;;;;;4.03;3.02;;;;;;;24.55;42.31;99403.12;1719300;83;21480;-45
2022/06/25 06:48:57;;;;;;;4.97;3.12;;;;;;;24.62;42.38;99407.81;1719135;83;21546;-45
2022/06/25 06:51:24;;;;;;;4.60;2.60;;;;;;;24.69;42.40;99407.52;1719138;83;20937;-45
2022/06/25 06:53:51;;;;;;;3.67;2.80;;;;;;;24.79;42.14;99405.57;1719134;83;21001;-45
2022/06/25 06:56:18;;;;;;;5.25;3.25;;;;;;;24.85;41.59;99402.38;1719237;83;21518;-45
2022/06/25 06:58:46;;;;;;;2.98;2.50;;;;;;;24.90;40.76;99405.97;1719032;83;21141;-45
2022/06/25 07:01:14;;;;;;;2.67;2.40;;;;;;;24.93;40.63;99401.53;1719133;83;21021;-45
2022/06/25 07:03:41;;;;;;;5.05;2.98;;;;;;;24.97;40.28;99409.09;1718953;83;21471;-45
2022/06/25 07:06:08;;;;;;;3.95;2.72;;;;;;;25.00;39.86;99395.08;1719154;83;21104;-45
2022/06/25 07:08:35;;;;;;;5.58;2.60;;;;;;;25.06;40.42;99406.36;1719122;83;21020;-45
2022/06/25 07:11:28;;;;;;;4.12;2.25;;;;;;;25.13;40.38;99403.28;1719194;83;21088;-45
2022/06/25 07:13:32;;;;;;;4.80;2.50;;;;;;;25.27;38.93;99411.03;1715379;83;21195;-45
2022/06/25 07:15:59;;;;;;;3.10;2.60;;;;;;;25.39;38.89;99405.22;1715129;83;21532;-45
2022/06/25 07:18:28;;;;;;;4.35;2.90;;;;;;;25.48;38.37;99407.41;1705889;84;21038;-45
2022/06/25 07:20:55;;;;;;;2.95;2.60;;;;;;;25.60;38.23;99401.61;1705729;84;21604;-45
2022/06/25 07:23:23;;;;;;;3.08;2.60;;;;;;;25.73;38.22;99413.96;1705669;84;21140;-45
2022/06/25 07:25:52;;;;;;;6.47;2.65;;;;;;;25.85;36.80;99407.51;1705450;84;21021;-45
2022/06/25 07:28:19;;;;;;;2.62;2.42;;;;;;;25.95;36.35;99409.03;1705893;84;21010;-45
2022/06/25 07:30:46;;;;;;;4.62;2.72;;;;;;;26.06;36.51;99407.96;1705784;84;21021;-45
2022/06/25 07:33:13;;;;;;;2.70;2.27;;;;;;;26.14;36.47;99410.58;1705809;83;21018;-44
2022/06/25 07:35:40;;;;;;;2.30;2.10;;;;;;;26.16;35.85;99412.28;1713732;83;21147;-44
2022/06/25 07:38:08;;;;;;;2.52;2.12;;;;;;;26.14;36.09;99407.80;1714139;82;20966;-45
2022/06/25 07:40:35;;;;;;;2.72;2.17;;;;;;;26.17;35.81;99402.72;1714362;83;21061;-45
2022/06/25 07:43:02;;;;;;;2.37;2.17;;;;;;;25.96;36.66;99371.07;1714156;82;21591;-45
2022/06/25 07:45:29;;;;;;;3.08;2.40;;;;;;;26.30;35.28;99408.90;1714172;82;21002;-45
2022/06/25 07:47:56;;;;;;;2.47;2.27;;;;;;;26.37;35.48;99405.05;1714083;83;21596;-45
2022/06/25 07:53:09;;;;;;;2.47;2.27;;;;;;;26.49;35.53;99410.26;1714023;83;21022;-45
2022/06/25 07:55:36;;;;;;;3.65;2.65;;;;;;;26.54;36.17;99408.24;1713651;82;21583;-45
2022/06/25 07:58:05;;;;;;;3.17;2.50;;;;;;;26.62;36.26;99406.08;1714004;83;21017;-45
2022/06/25 08:00:33;;;;;;;2.47;2.27;;;;;;;26.74;35.83;99411.28;1713920;82;21152;-45
2022/06/25 08:03:01;;;;;;;5.05;2.50;;;;;;;26.80;35.75;99399.69;1713770;83;21084;-45
2022/06/25 08:05:28;;;;;;;3.55;2.70;;;;;;;26.88;35.26;99401.53;1713921;82;21080;-45
2022/06/25 08:07:55;;;;;;;3.45;2.50;;;;;;;26.92;35.43;99408.47;1713871;83;21048;-45
2022/06/25 08:10:23;;;;;;;5.97;2.30;;;;;;;27.02;34.79;99410.59;1714028;83;21081;-44
2022/06/25 08:12:50;;;;;;;2.50;2.30;;;;;;;27.11;35.27;99414.11;1713841;82;21155;-44
2022/06/25 08:15:19;;;;;;;3.83;2.65;;;;;;;27.19;35.36;99415.33;1713762;83;21024;-45
2022/06/25 08:17:47;;;;;;;4.40;2.60;;;;;;;27.25;35.67;99413.42;1720919;82;21096;-45
2022/06/25 08:20:13;;;;;;;3.00;2.35;;;;;;;27.30;35.46;99408.48;1686731;85;20990;-45
2022/06/25 08:22:41;;;;;;;3.52;2.47;;;;;;;27.38;34.99;99411.05;1721538;83;21038;-45
2022/06/25 08:25:08;;;;;;;3.27;2.75;;;;;;;27.44;35.40;99411.96;1686750;85;21142;-45
2022/06/25 08:27:49;;;;;;;5.90;2.40;;;;;;;27.54;35.18;99408.69;1721475;83;21016;-45
2022/06/25 08:30:20;;;;;;;2.95;2.50;;;;;;;27.58;34.90;99400.92;1716958;83;21024;-45
2022/06/25 08:32:48;;;;;;;3.02;2.40;;;;;;;27.64;35.05;99408.00;1686784;85;20933;-45
2022/06/25 08:35:15;;;;;;;3.15;2.60;;;;;;;27.71;34.86;99408.25;1721642;83;21018;-45
2022/06/25 08:37:47;;;;;;;4.05;2.42;;;;;;;27.79;34.70;99410.20;1686676;85;21143;-45
2022/06/25 08:40:14;;;;;;;4.40;2.70;;;;;;;27.86;34.55;99410.47;1721541;83;20973;-45
2022/06/25 08:42:42;;;;;;;3.87;2.30;;;;;;;27.87;33.81;99414.17;1686677;84;21045;-45
2022/06/25 08:45:10;;;;;;;4.87;2.33;;;;;;;27.79;33.57;99405.27;1721489;83;20996;-45
2022/06/25 08:47:47;;;;;;;3.27;2.40;;;;;;;27.72;33.70;99402.21;1721567;83;21041;-45
2022/06/25 08:50:15;;;;;;;3.83;2.70;;;;;;;27.71;34.09;99406.86;1686628;85;21123;-45
2022/06/25 08:52:49;;;;;;;2.47;2.27;;;;;;;27.71;33.85;99409.02;1721751;83;21028;-45
2022/06/25 08:55:36;;;;;;;3.17;2.05;;;;;;;27.78;33.72;99408.67;1721811;83;21048;-45
2022/06/25 08:58:03;;;;;;;4.08;2.10;;;;;;;27.90;33.55;99409.66;1686889;85;21499;-45
2022/06/25 09:00:35;;;;;;;3.67;2.30;;;;;;;28.03;33.58;99401.19;1721752;83;21057;-45
2022/06/25 09:03:02;;;;;;;3.90;2.20;;;;;;;28.19;33.44;99404.80;1721827;83;21314;-45
2022/06/25 09:05:32;;;;;;;2.35;2.10;;;;;;;28.32;32.97;99393.52;1686791;84;21005;-45
2022/06/25 09:08:05;;;;;;;3.55;2.08;;;;;;;28.43;32.67;99404.11;1722066;83;20981;-45
2022/06/25 09:10:33;;;;;;;4.17;2.22;;;;;;;28.54;32.54;99395.95;1686826;85;20956;-45
2022/06/25 09:13:08;;;;;;;3.77;2.37;;;;;;;28.65;32.85;99402.34;1721392;83;21562;-45
2022/06/25 09:15:42;;;;;;;2.62;2.35;;;;;;;28.73;32.56;99397.31;1686688;85;21185;-45
2022/06/25 09:18:12;;;;;;;2.70;1.90;;;;;;;28.84;32.38;99394.72;1721528;82;21036;-45
2022/06/25 09:21:01;;;;;;;4.33;2.45;;;;;;;28.92;32.15;99393.06;1721616;83;21004;-45
2022/06/25 09:23:30;;;;;;;3.80;2.40;;;;;;;28.98;31.97;99386.80;1721922;83;21586;-45
2022/06/25 09:26:05;;;;;;;3.40;2.50;;;;;;;28.92;32.00;99396.47;1721539;83;21040;-45
2022/06/25 09:28:41;;;;;;;2.77;2.12;;;;;;;28.85;31.88;99392.70;1686863;84;21805;-45
2022/06/25 09:31:09;;;;;;;6.05;2.37;;;;;;;28.85;32.66;99387.12;1721299;82;21488;-45
2022/06/25 09:33:38;;;;;;;7.40;2.50;;;;;;;28.83;32.50;99393.17;1686428;84;21091;-45
2022/06/25 09:36:08;;;;;;;4.03;2.20;;;;;;;28.91;32.63;99393.53;1686817;85;21057;-45
2022/06/25 09:38:35;;;;;;;;;;;;;;;29.05;31.97;99393.39;1724282;83;21570;-45
2022/06/25 09:41:02;;;;;;;2.87;2.40;;;;;;;29.19;31.81;99395.38;1703379;83;21204;-45
2022/06/25 09:43:35;;;;;;;7.72;2.40;;;;;;;29.21;32.16;99390.05;1721481;83;20946;-45
2022/06/25 09:46:06;;;;;;;2.55;2.20;;;;;;;29.36;32.17;99382.44;1686894;84;21047;-45
2022/06/25 09:48:35;;;;;;;2.40;2.10;;;;;;;29.54;31.39;99390.55;1686703;85;21558;-45
2022/06/25 09:51:28;;;;;;;3.27;2.37;;;;;;;29.67;30.49;99376.25;1687196;85;21566;-45
2022/06/25 09:53:59;;;;;;;3.72;2.50;;;;;;;29.79;30.69;99377.28;1721358;83;21246;-45
2022/06/25 09:56:32;;;;;;;2.83;2.30;;;;;;;29.85;30.66;99386.36;1686860;85;21092;-45
2022/06/25 09:59:00;;;;;;;7.03;2.12;;;;;;;29.78;30.93;99385.52;1686682;85;21495;-45
2022/06/25 10:01:29;;;;;;;2.72;2.33;;;;;;;29.70;31.04;99382.24;1686760;85;21531;-45
2022/06/25 10:03:56;;;;;;;3.75;2.10;;;;;;;29.65;30.86;99385.73;1686797;85;21088;-45
2022/06/25 10:06:24;;;;;;;2.90;2.15;;;;;;;29.63;30.81;99382.02;1686857;85;21216;-45
2022/06/25 10:08:55;;;;;;;3.12;2.25;;;;;;;29.68;30.13;99389.70;1686604;85;21012;-45
2022/06/25 10:11:27;;;;;;;4.35;2.05;;;;;;;29.76;29.81;99393.64;1686787;85;21511;-45
2022/06/25 10:13:54;;;;;;;3.17;2.30;;;;;;;29.84;29.76;99389.78;1721576;83;21602;-45
2022/06/25 10:16:25;;;;;;;3.83;2.00;;;;;;;29.87;29.88;99388.05;1721846;83;21069;-45
2022/06/25 10:18:54;;;;;;;4.50;2.20;;;;;;;29.92;29.91;99380.38;1692048;84;21229;-45
2022/06/25 10:21:23;;;;;;;3.25;1.90;;;;;;;29.99;29.66;99383.51;1692146;84;21479;-45
2022/06/25 10:24:01;;;;;;;2.37;2.10;;;;;;;30.14;29.73;99380.62;1691723;84;21019;-45
2022/06/25 10:26:29;;;;;;;3.10;1.95;;;;;;;30.29;30.23;99382.69;1692016;84;20957;-45
2022/06/25 10:28:56;;;;;;;3.12;2.12;;;;;;;30.44;29.81;99378.38;1691787;84;21047;-45
2022/06/25 10:31:24;;;;;;;2.55;1.95;;;;;;;30.62;29.43;99380.22;1691929;84;21138;-45
2022/06/25 10:33:59;;;;;;;2.47;2.20;;;;;;;30.81;28.06;99378.45;1691515;84;21518;-45
2022/06/25 10:36:51;;;;;;;2.30;2.10;;;;;;;30.93;27.49;99371.69;1691927;84;21618;-45
2022/06/25 10:39:29;;;;;;;2.33;2.00;;;;;;;31.13;28.18;99377.17;1691999;84;21111;-45
2022/06/25 10:45:08;;;;;;;3.47;2.25;;;;;;;31.54;28.04;99375.50;1691744;84;21112;-45
2022/06/25 10:47:48;;;;;;;3.30;2.20;;;;;;;31.60;27.50;99379.12;1691889;84;20908;-45
2022/06/25 10:50:32;;;;;;;3.55;2.30;;;;;;;31.64;28.14;99368.44;1691589;84;20952;-45
2022/06/25 10:53:11;;;;;;;4.10;2.20;;;;;;;31.58;27.75;99372.62;1691805;84;21012;-45
2022/06/25 10:55:50;;;;;;;3.10;2.05;;;;;;;31.39;28.03;99372.88;1692043;84;21111;-45
2022/06/25 10:58:26;;;;;;;2.05;1.85;;;;;;;31.33;28.45;99374.24;1691685;84;23165;-45
2022/06/25 11:01:01;;;;;;;2.35;1.98;;;;;;;31.39;27.86;99372.25;1691907;84;20972;-45
2022/06/25 11:03:37;;;;;;;3.15;2.20;;;;;;;31.41;27.70;99368.32;1691818;84;21550;-45
2022/06/25 11:06:22;;;;;;;3.55;2.20;;;;;;;31.48;27.63;99375.47;1691817;84;20972;-45
2022/06/25 11:08:49;;;;;;;2.70;2.20;;;;;;;31.53;27.70;99372.56;1691829;84;21101;-45
2022/06/25 11:11:26;;;;;;;4.37;2.20;;;;;;;31.54;27.88;99369.27;1691886;84;21156;-45
2022/06/25 11:13:53;;;;;;;3.20;2.17;;;;;;;31.52;27.97;99368.98;1691776;84;21495;-45
2022/06/25 11:16:21;;;;;;;2.45;2.10;;;;;;;31.57;27.92;99368.91;1691792;84;21218;-45
2022/06/25 11:18:53;;;;;;;2.85;2.22;;;;;;;31.57;27.63;99374.52;1680942;84;21052;-45
2022/06/25 11:21:35;;;;;;;4.85;2.25;;;;;;;31.51;27.31;99368.87;1713587;82;21092;-45
2022/06/25 11:24:24;;;;;;;5.17;2.15;;;;;;;31.55;27.99;99374.23;1714008;82;21240;-45
2022/06/25 11:31:35;;;;;;;2.60;2.10;;;;;;;32.41;28.03;99369.94;1778935;79;22665;-44
2022/06/25 11:34:03;;;;;;;2.90;2.17;;;;;;;32.76;27.08;99378.67;1739188;82;20939;-45
2022/06/25 11:36:33;;;;;;;2.27;2.08;;;;;;;33.18;25.79;99377.61;1738993;82;21225;-45
2022/06/25 11:39:00;;;;;;;3.25;2.10;;;;;;;33.49;25.53;99370.26;1738919;82;20966;-45
2022/06/25 11:41:30;;;;;;;2.20;2.00;;;;;;;33.77;24.92;99376.43;1738922;82;21030;-45
2022/06/25 11:44:07;;;;;;;;;;;;;;;33.84;25.38;99372.42;1741682;82;20994;-45
2022/06/25 11:46:34;;;;;;;4.95;2.40;;;;;;;33.73;24.68;99379.52;1739240;82;20119;-45
2022/06/25 11:49:05;;;;;;;3.22;2.05;;;;;;;33.50;25.12;99374.58;1738919;82;23103;-45
2022/06/25 11:51:33;;;;;;;4.28;2.40;;;;;;;33.56;25.19;99373.92;1739002;82;21557;-45
2022/06/25 11:54:04;;;;;;;4.80;2.20;;;;;;;33.75;25.26;99374.13;1739086;82;20958;-45
2022/06/25 11:56:32;;;;;;;4.90;2.00;;;;;;;33.91;24.88;99369.07;1739068;82;21025;-45
2022/06/25 11:59:00;;;;;;;3.20;2.15;;;;;;;34.02;23.90;99363.39;1739123;82;21034;-45
2022/06/25 12:01:29;;;;;;;2.00;1.80;;;;;;;34.33;24.02;99360.00;1739074;82;21147;-45
2022/06/25 12:03:57;;;;;;;3.52;1.98;;;;;;;34.74;23.67;99355.11;1739284;82;21536;-45
2022/06/25 12:06:24;;;;;;;2.40;1.90;;;;;;;35.16;23.01;99355.71;1739157;82;20982;-45
2022/06/25 12:08:51;;;;;;;2.85;2.00;;;;;;;35.58;22.65;99355.02;1720322;82;21105;-45